sensor_id;sensor_type;location;lat;lon;timestamp;P1;durP1;ratioP1;P2;durP2;ratioP2
9898;SDS011;4988;49.238;6.698;2022-12-07T00:02:11;18.73;;;9.10;;
9898;SDS011;4988;49.238;6.698;2022-12-07T00:04:36;20.70;;;9.50;;
9898;SDS011;4988;49.238;6.698;2022-12-07T00:07:01;21.00;;;9.83;;
9898;SDS011;4988;49.238;6.698;2022-12-07T00:09:27;18.43;;;9.23;;
9898;SDS011;4988;49.238;6.698;2022-12-07T00:11:53;20.93;;;10.33;;
9898;SDS011;4988;49.238;6.698;2022-12-07T00:14:18;22.07;;;9.97;;
9898;SDS011;4988;49.238;6.698;2022-12-07T00:16:44;21.80;;;9.63;;
9898;SDS011;4988;49.238;6.698;2022-12-07T00:19:10;21.27;;;9.73;;
9898;SDS011;4988;49.238;6.698;2022-12-07T00:21:37;23.10;;;10.40;;
9898;SDS011;4988;49.238;6.698;2022-12-07T00:24:03;26.63;;;12.27;;
9898;SDS011;4988;49.238;6.698;2022-12-07T00:26:31;29.67;;;12.43;;
9898;SDS011;4988;49.238;6.698;2022-12-07T00:28:58;33.70;;;14.35;;
9898;SDS011;4988;49.238;6.698;2022-12-07T00:31:26;29.00;;;12.93;;
9898;SDS011;4988;49.238;6.698;2022-12-07T00:33:53;30.03;;;12.43;;
9898;SDS011;4988;49.238;6.698;2022-12-07T00:36:20;39.17;;;15.73;;
9898;SDS011;4988;49.238;6.698;2022-12-07T00:38:46;33.17;;;12.73;;
9898;SDS011;4988;49.238;6.698;2022-12-07T00:41:16;30.37;;;12.33;;
9898;SDS011;4988;49.238;6.698;2022-12-07T00:43:43;29.27;;;11.83;;
9898;SDS011;4988;49.238;6.698;2022-12-07T00:46:10;20.93;;;9.67;;
9898;SDS011;4988;49.238;6.698;2022-12-07T00:48:36;24.13;;;11.07;;
9898;SDS011;4988;49.238;6.698;2022-12-07T00:51:02;17.07;;;8.83;;
9898;SDS011;4988;49.238;6.698;2022-12-07T00:53:28;16.67;;;9.03;;
9898;SDS011;4988;49.238;6.698;2022-12-07T00:55:54;19.73;;;9.90;;
9898;SDS011;4988;49.238;6.698;2022-12-07T00:58:21;21.20;;;9.00;;
9898;SDS011;4988;49.238;6.698;2022-12-07T01:00:46;17.83;;;9.30;;
9898;SDS011;4988;49.238;6.698;2022-12-07T01:03:12;17.23;;;9.20;;
9898;SDS011;4988;49.238;6.698;2022-12-07T01:05:39;17.70;;;8.70;;
9898;SDS011;4988;49.238;6.698;2022-12-07T01:08:05;20.03;;;9.17;;
9898;SDS011;4988;49.238;6.698;2022-12-07T01:10:30;19.27;;;9.60;;
9898;SDS011;4988;49.238;6.698;2022-12-07T01:12:56;21.40;;;9.80;;
9898;SDS011;4988;49.238;6.698;2022-12-07T01:15:23;21.73;;;9.98;;
9898;SDS011;4988;49.238;6.698;2022-12-07T01:17:49;21.98;;;10.18;;
9898;SDS011;4988;49.238;6.698;2022-12-07T01:20:14;23.83;;;10.73;;
9898;SDS011;4988;49.238;6.698;2022-12-07T01:22:41;21.13;;;9.98;;
9898;SDS011;4988;49.238;6.698;2022-12-07T01:25:07;18.17;;;9.02;;
9898;SDS011;4988;49.238;6.698;2022-12-07T01:27:34;20.88;;;10.00;;
9898;SDS011;4988;49.238;6.698;2022-12-07T01:30:00;20.20;;;9.73;;
9898;SDS011;4988;49.238;6.698;2022-12-07T01:32:26;19.08;;;9.52;;
9898;SDS011;4988;49.238;6.698;2022-12-07T01:34:52;21.03;;;9.60;;
9898;SDS011;4988;49.238;6.698;2022-12-07T01:37:17;22.57;;;9.20;;
9898;SDS011;4988;49.238;6.698;2022-12-07T01:39:42;21.83;;;9.90;;
9898;SDS011;4988;49.238;6.698;2022-12-07T01:42:11;19.80;;;8.10;;
9898;SDS011;4988;49.238;6.698;2022-12-07T01:47:40;17.93;;;8.57;;
9898;SDS011;4988;49.238;6.698;2022-12-07T01:50:07;20.07;;;9.13;;
9898;SDS011;4988;49.238;6.698;2022-12-07T01:52:33;17.27;;;8.60;;
9898;SDS011;4988;49.238;6.698;2022-12-07T01:55:04;21.23;;;9.30;;
9898;SDS011;4988;49.238;6.698;2022-12-07T01:57:34;19.07;;;9.53;;
9898;SDS011;4988;49.238;6.698;2022-12-07T02:00:03;19.67;;;8.43;;
9898;SDS011;4988;49.238;6.698;2022-12-07T02:02:34;17.80;;;9.10;;
9898;SDS011;4988;49.238;6.698;2022-12-07T02:05:03;19.50;;;8.87;;
9898;SDS011;4988;49.238;6.698;2022-12-07T02:07:30;17.77;;;8.97;;
9898;SDS011;4988;49.238;6.698;2022-12-07T02:10:18;19.47;;;8.83;;
9898;SDS011;4988;49.238;6.698;2022-12-07T02:12:47;20.57;;;10.03;;
9898;SDS011;4988;49.238;6.698;2022-12-07T02:15:15;17.47;;;8.53;;
9898;SDS011;4988;49.238;6.698;2022-12-07T02:20:30;19.50;;;8.67;;
9898;SDS011;4988;49.238;6.698;2022-12-07T02:23:21;18.47;;;8.37;;
9898;SDS011;4988;49.238;6.698;2022-12-07T02:26:16;18.93;;;9.27;;
9898;SDS011;4988;49.238;6.698;2022-12-07T02:29:22;28.53;;;11.83;;
9898;SDS011;4988;49.238;6.698;2022-12-07T02:31:54;33.73;;;13.10;;
9898;SDS011;4988;49.238;6.698;2022-12-07T02:34:31;31.50;;;12.33;;
9898;SDS011;4988;49.238;6.698;2022-12-07T02:37:00;31.88;;;12.95;;
9898;SDS011;4988;49.238;6.698;2022-12-07T02:39:34;29.58;;;12.13;;
9898;SDS011;4988;49.238;6.698;2022-12-07T02:42:19;29.63;;;12.35;;
9898;SDS011;4988;49.238;6.698;2022-12-07T02:44:50;28.55;;;11.63;;
9898;SDS011;4988;49.238;6.698;2022-12-07T02:47:17;26.73;;;11.93;;
9898;SDS011;4988;49.238;6.698;2022-12-07T02:49:45;26.77;;;9.60;;
9898;SDS011;4988;49.238;6.698;2022-12-07T02:52:11;25.93;;;10.63;;
9898;SDS011;4988;49.238;6.698;2022-12-07T02:54:36;24.77;;;10.30;;
9898;SDS011;4988;49.238;6.698;2022-12-07T03:00:12;24.38;;;10.80;;
9898;SDS011;4988;49.238;6.698;2022-12-07T03:10:40;21.80;;;9.32;;
9898;SDS011;4988;49.238;6.698;2022-12-07T03:15:49;23.17;;;9.87;;
9898;SDS011;4988;49.238;6.698;2022-12-07T03:18:22;21.93;;;10.17;;
9898;SDS011;4988;49.238;6.698;2022-12-07T03:20:51;20.03;;;9.83;;
9898;SDS011;4988;49.238;6.698;2022-12-07T03:23:20;19.77;;;9.23;;
9898;SDS011;4988;49.238;6.698;2022-12-07T03:25:50;18.37;;;9.40;;
9898;SDS011;4988;49.238;6.698;2022-12-07T03:28:22;19.10;;;9.33;;
9898;SDS011;4988;49.238;6.698;2022-12-07T03:30:51;22.27;;;9.50;;
9898;SDS011;4988;49.238;6.698;2022-12-07T03:33:32;19.13;;;8.73;;
9898;SDS011;4988;49.238;6.698;2022-12-07T03:42:04;18.13;;;8.50;;
9898;SDS011;4988;49.238;6.698;2022-12-07T03:44:32;19.20;;;8.90;;
9898;SDS011;4988;49.238;6.698;2022-12-07T03:47:01;19.00;;;8.93;;
9898;SDS011;4988;49.238;6.698;2022-12-07T03:49:32;16.27;;;8.00;;
9898;SDS011;4988;49.238;6.698;2022-12-07T03:54:49;20.07;;;9.90;;
9898;SDS011;4988;49.238;6.698;2022-12-07T03:57:17;22.27;;;9.80;;
9898;SDS011;4988;49.238;6.698;2022-12-07T03:59:44;21.87;;;10.00;;
9898;SDS011;4988;49.238;6.698;2022-12-07T04:02:11;21.33;;;9.67;;
9898;SDS011;4988;49.238;6.698;2022-12-07T04:04:38;24.83;;;10.40;;
9898;SDS011;4988;49.238;6.698;2022-12-07T04:07:04;23.07;;;10.53;;
9898;SDS011;4988;49.238;6.698;2022-12-07T04:09:29;24.37;;;10.37;;
9898;SDS011;4988;49.238;6.698;2022-12-07T04:11:54;19.93;;;9.17;;
9898;SDS011;4988;49.238;6.698;2022-12-07T04:14:20;21.97;;;9.70;;
9898;SDS011;4988;49.238;6.698;2022-12-07T04:19:10;20.43;;;10.23;;
9898;SDS011;4988;49.238;6.698;2022-12-07T04:21:36;22.67;;;9.87;;
9898;SDS011;4988;49.238;6.698;2022-12-07T04:24:01;23.03;;;10.83;;
9898;SDS011;4988;49.238;6.698;2022-12-07T04:26:27;25.07;;;10.07;;
9898;SDS011;4988;49.238;6.698;2022-12-07T04:28:52;23.13;;;9.80;;
9898;SDS011;4988;49.238;6.698;2022-12-07T04:31:17;23.73;;;10.93;;
9898;SDS011;4988;49.238;6.698;2022-12-07T04:33:42;21.80;;;9.37;;
9898;SDS011;4988;49.238;6.698;2022-12-07T04:36:08;23.00;;;10.80;;
9898;SDS011;4988;49.238;6.698;2022-12-07T04:38:33;22.10;;;10.13;;
9898;SDS011;4988;49.238;6.698;2022-12-07T04:41:03;22.23;;;9.30;;
9898;SDS011;4988;49.238;6.698;2022-12-07T04:43:29;19.67;;;9.73;;
9898;SDS011;4988;49.238;6.698;2022-12-07T04:45:55;26.87;;;10.60;;
9898;SDS011;4988;49.238;6.698;2022-12-07T04:48:20;23.83;;;10.43;;
9898;SDS011;4988;49.238;6.698;2022-12-07T04:50:47;24.83;;;10.80;;
9898;SDS011;4988;49.238;6.698;2022-12-07T04:53:14;26.67;;;11.33;;
9898;SDS011;4988;49.238;6.698;2022-12-07T04:55:39;27.60;;;11.37;;
9898;SDS011;4988;49.238;6.698;2022-12-07T04:58:05;27.40;;;12.03;;
9898;SDS011;4988;49.238;6.698;2022-12-07T05:00:30;33.13;;;13.60;;
9898;SDS011;4988;49.238;6.698;2022-12-07T05:02:55;31.03;;;12.63;;
9898;SDS011;4988;49.238;6.698;2022-12-07T05:05:21;32.50;;;12.30;;
9898;SDS011;4988;49.238;6.698;2022-12-07T05:07:46;25.87;;;11.17;;
9898;SDS011;4988;49.238;6.698;2022-12-07T05:10:11;30.20;;;11.40;;
9898;SDS011;4988;49.238;6.698;2022-12-07T05:12:37;26.47;;;11.67;;
9898;SDS011;4988;49.238;6.698;2022-12-07T05:15:02;29.70;;;12.10;;
9898;SDS011;4988;49.238;6.698;2022-12-07T05:17:28;25.87;;;11.87;;
9898;SDS011;4988;49.238;6.698;2022-12-07T05:19:53;28.60;;;10.97;;
9898;SDS011;4988;49.238;6.698;2022-12-07T05:22:18;26.43;;;11.53;;
9898;SDS011;4988;49.238;6.698;2022-12-07T05:24:43;25.83;;;11.13;;
9898;SDS011;4988;49.238;6.698;2022-12-07T05:27:09;25.83;;;11.43;;
9898;SDS011;4988;49.238;6.698;2022-12-07T05:29:34;27.77;;;12.13;;
9898;SDS011;4988;49.238;6.698;2022-12-07T05:32:00;31.20;;;13.17;;
9898;SDS011;4988;49.238;6.698;2022-12-07T05:34:25;31.73;;;12.57;;
9898;SDS011;4988;49.238;6.698;2022-12-07T05:36:50;29.20;;;12.33;;
9898;SDS011;4988;49.238;6.698;2022-12-07T05:39:16;29.77;;;11.70;;
9898;SDS011;4988;49.238;6.698;2022-12-07T05:41:41;31.73;;;12.90;;
9898;SDS011;4988;49.238;6.698;2022-12-07T05:44:25;26.50;;;11.90;;
9898;SDS011;4988;49.238;6.698;2022-12-07T05:46:50;28.20;;;12.27;;
9898;SDS011;4988;49.238;6.698;2022-12-07T05:49:16;29.27;;;12.17;;
9898;SDS011;4988;49.238;6.698;2022-12-07T05:51:41;35.80;;;13.47;;
9898;SDS011;4988;49.238;6.698;2022-12-07T05:54:06;31.37;;;14.00;;
9898;SDS011;4988;49.238;6.698;2022-12-07T05:56:32;35.53;;;14.07;;
9898;SDS011;4988;49.238;6.698;2022-12-07T05:58:57;34.93;;;13.97;;
9898;SDS011;4988;49.238;6.698;2022-12-07T06:01:41;31.03;;;13.50;;
9898;SDS011;4988;49.238;6.698;2022-12-07T06:04:07;30.30;;;12.90;;
9898;SDS011;4988;49.238;6.698;2022-12-07T06:06:32;36.13;;;15.10;;
9898;SDS011;4988;49.238;6.698;2022-12-07T06:09:00;33.43;;;14.33;;
9898;SDS011;4988;49.238;6.698;2022-12-07T06:11:29;37.30;;;14.60;;
9898;SDS011;4988;49.238;6.698;2022-12-07T06:14:12;37.03;;;14.87;;
9898;SDS011;4988;49.238;6.698;2022-12-07T06:16:38;31.93;;;13.73;;
9898;SDS011;4988;49.238;6.698;2022-12-07T06:19:03;33.60;;;13.40;;
9898;SDS011;4988;49.238;6.698;2022-12-07T06:21:28;36.27;;;14.23;;
9898;SDS011;4988;49.238;6.698;2022-12-07T06:23:54;38.30;;;13.97;;
9898;SDS011;4988;49.238;6.698;2022-12-07T06:26:19;35.33;;;14.50;;
9898;SDS011;4988;49.238;6.698;2022-12-07T06:28:45;37.93;;;15.57;;
9898;SDS011;4988;49.238;6.698;2022-12-07T06:31:10;41.60;;;15.83;;
9898;SDS011;4988;49.238;6.698;2022-12-07T06:33:36;35.07;;;14.67;;
9898;SDS011;4988;49.238;6.698;2022-12-07T06:36:01;38.77;;;14.50;;
9898;SDS011;4988;49.238;6.698;2022-12-07T06:38:27;38.07;;;14.87;;
9898;SDS011;4988;49.238;6.698;2022-12-07T06:40:52;40.53;;;14.90;;
9898;SDS011;4988;49.238;6.698;2022-12-07T06:43:17;41.13;;;15.00;;
9898;SDS011;4988;49.238;6.698;2022-12-07T06:45:43;43.70;;;15.73;;
9898;SDS011;4988;49.238;6.698;2022-12-07T06:48:08;38.07;;;15.23;;
9898;SDS011;4988;49.238;6.698;2022-12-07T06:50:33;43.03;;;15.83;;
9898;SDS011;4988;49.238;6.698;2022-12-07T06:52:58;35.90;;;14.77;;
9898;SDS011;4988;49.238;6.698;2022-12-07T06:55:24;37.73;;;15.13;;
9898;SDS011;4988;49.238;6.698;2022-12-07T06:57:49;40.47;;;15.90;;
9898;SDS011;4988;49.238;6.698;2022-12-07T07:00:14;33.93;;;15.20;;
9898;SDS011;4988;49.238;6.698;2022-12-07T07:02:41;42.17;;;16.27;;
9898;SDS011;4988;49.238;6.698;2022-12-07T07:05:06;40.90;;;15.40;;
9898;SDS011;4988;49.238;6.698;2022-12-07T07:07:32;40.17;;;16.40;;
9898;SDS011;4988;49.238;6.698;2022-12-07T07:09:57;42.27;;;15.13;;
9898;SDS011;4988;49.238;6.698;2022-12-07T07:12:22;41.30;;;16.07;;
9898;SDS011;4988;49.238;6.698;2022-12-07T07:14:48;40.33;;;16.03;;
9898;SDS011;4988;49.238;6.698;2022-12-07T07:17:13;37.37;;;16.30;;
9898;SDS011;4988;49.238;6.698;2022-12-07T07:19:38;46.63;;;16.47;;
9898;SDS011;4988;49.238;6.698;2022-12-07T07:22:04;44.47;;;16.17;;
9898;SDS011;4988;49.238;6.698;2022-12-07T07:24:29;44.17;;;15.73;;
9898;SDS011;4988;49.238;6.698;2022-12-07T07:26:55;40.13;;;16.83;;
9898;SDS011;4988;49.238;6.698;2022-12-07T07:29:20;41.13;;;16.30;;
9898;SDS011;4988;49.238;6.698;2022-12-07T07:31:45;47.47;;;17.00;;
9898;SDS011;4988;49.238;6.698;2022-12-07T07:34:11;43.67;;;15.17;;
9898;SDS011;4988;49.238;6.698;2022-12-07T07:36:36;41.70;;;15.87;;
9898;SDS011;4988;49.238;6.698;2022-12-07T07:39:02;43.83;;;16.73;;
9898;SDS011;4988;49.238;6.698;2022-12-07T07:41:27;48.00;;;17.03;;
9898;SDS011;4988;49.238;6.698;2022-12-07T07:43:53;45.70;;;16.00;;
9898;SDS011;4988;49.238;6.698;2022-12-07T07:46:18;47.87;;;18.90;;
9898;SDS011;4988;49.238;6.698;2022-12-07T07:48:43;48.70;;;17.33;;
9898;SDS011;4988;49.238;6.698;2022-12-07T07:51:08;48.43;;;17.17;;
9898;SDS011;4988;49.238;6.698;2022-12-07T07:53:34;49.17;;;17.17;;
9898;SDS011;4988;49.238;6.698;2022-12-07T07:55:59;45.80;;;17.87;;
9898;SDS011;4988;49.238;6.698;2022-12-07T07:58:24;51.53;;;18.80;;
9898;SDS011;4988;49.238;6.698;2022-12-07T08:00:50;61.27;;;18.70;;
9898;SDS011;4988;49.238;6.698;2022-12-07T08:03:16;51.07;;;18.37;;
9898;SDS011;4988;49.238;6.698;2022-12-07T08:05:41;53.77;;;17.03;;
9898;SDS011;4988;49.238;6.698;2022-12-07T08:08:07;51.43;;;18.40;;
9898;SDS011;4988;49.238;6.698;2022-12-07T08:10:32;49.30;;;17.07;;
9898;SDS011;4988;49.238;6.698;2022-12-07T08:12:57;48.77;;;18.00;;
9898;SDS011;4988;49.238;6.698;2022-12-07T08:15:35;47.47;;;17.67;;
9898;SDS011;4988;49.238;6.698;2022-12-07T08:18:02;45.45;;;16.70;;
9898;SDS011;4988;49.238;6.698;2022-12-07T08:20:29;52.10;;;16.80;;
9898;SDS011;4988;49.238;6.698;2022-12-07T08:22:55;48.15;;;16.63;;
9898;SDS011;4988;49.238;6.698;2022-12-07T08:25:21;48.50;;;18.27;;
9898;SDS011;4988;49.238;6.698;2022-12-07T08:27:49;54.23;;;17.77;;
9898;SDS011;4988;49.238;6.698;2022-12-07T08:30:16;49.40;;;17.73;;
9898;SDS011;4988;49.238;6.698;2022-12-07T08:32:41;45.30;;;18.03;;
9898;SDS011;4988;49.238;6.698;2022-12-07T08:35:09;51.33;;;17.60;;
9898;SDS011;4988;49.238;6.698;2022-12-07T08:37:35;47.73;;;18.20;;
9898;SDS011;4988;49.238;6.698;2022-12-07T08:40:00;51.93;;;18.83;;
9898;SDS011;4988;49.238;6.698;2022-12-07T08:42:26;51.70;;;18.20;;
9898;SDS011;4988;49.238;6.698;2022-12-07T08:44:54;50.50;;;18.60;;
9898;SDS011;4988;49.238;6.698;2022-12-07T08:47:23;47.20;;;17.13;;
9898;SDS011;4988;49.238;6.698;2022-12-07T08:49:49;54.43;;;17.70;;
9898;SDS011;4988;49.238;6.698;2022-12-07T08:52:17;45.27;;;16.03;;
9898;SDS011;4988;49.238;6.698;2022-12-07T08:54:43;50.07;;;18.53;;
9898;SDS011;4988;49.238;6.698;2022-12-07T08:57:09;50.30;;;18.33;;
9898;SDS011;4988;49.238;6.698;2022-12-07T08:59:36;45.83;;;17.77;;
9898;SDS011;4988;49.238;6.698;2022-12-07T09:02:02;48.43;;;19.40;;
9898;SDS011;4988;49.238;6.698;2022-12-07T09:04:29;47.40;;;18.33;;
9898;SDS011;4988;49.238;6.698;2022-12-07T09:06:54;49.97;;;18.30;;
9898;SDS011;4988;49.238;6.698;2022-12-07T09:09:20;53.93;;;18.33;;
9898;SDS011;4988;49.238;6.698;2022-12-07T09:11:45;50.20;;;17.93;;
9898;SDS011;4988;49.238;6.698;2022-12-07T09:14:11;51.63;;;18.13;;
9898;SDS011;4988;49.238;6.698;2022-12-07T09:16:37;52.10;;;17.70;;
9898;SDS011;4988;49.238;6.698;2022-12-07T09:19:03;51.40;;;18.27;;
9898;SDS011;4988;49.238;6.698;2022-12-07T09:21:28;53.57;;;18.50;;
9898;SDS011;4988;49.238;6.698;2022-12-07T09:23:54;49.87;;;18.57;;
9898;SDS011;4988;49.238;6.698;2022-12-07T09:26:19;46.10;;;17.10;;
9898;SDS011;4988;49.238;6.698;2022-12-07T09:28:44;44.63;;;17.20;;
9898;SDS011;4988;49.238;6.698;2022-12-07T09:31:10;42.50;;;16.50;;
9898;SDS011;4988;49.238;6.698;2022-12-07T09:33:35;45.17;;;16.43;;
9898;SDS011;4988;49.238;6.698;2022-12-07T09:36:00;42.57;;;16.30;;
9898;SDS011;4988;49.238;6.698;2022-12-07T09:38:26;40.70;;;16.53;;
9898;SDS011;4988;49.238;6.698;2022-12-07T09:40:51;48.30;;;17.50;;
9898;SDS011;4988;49.238;6.698;2022-12-07T09:43:20;40.10;;;16.40;;
9898;SDS011;4988;49.238;6.698;2022-12-07T09:45:48;50.83;;;16.63;;
9898;SDS011;4988;49.238;6.698;2022-12-07T09:48:19;48.70;;;17.23;;
9898;SDS011;4988;49.238;6.698;2022-12-07T09:50:47;44.30;;;17.17;;
9898;SDS011;4988;49.238;6.698;2022-12-07T09:53:20;42.77;;;16.47;;
9898;SDS011;4988;49.238;6.698;2022-12-07T09:55:49;42.97;;;16.50;;
9898;SDS011;4988;49.238;6.698;2022-12-07T09:58:22;44.17;;;17.17;;
9898;SDS011;4988;49.238;6.698;2022-12-07T10:00:50;40.50;;;15.80;;
9898;SDS011;4988;49.238;6.698;2022-12-07T10:03:20;44.13;;;15.63;;
9898;SDS011;4988;49.238;6.698;2022-12-07T10:05:46;42.33;;;16.97;;
9898;SDS011;4988;49.238;6.698;2022-12-07T10:08:14;40.63;;;15.27;;
9898;SDS011;4988;49.238;6.698;2022-12-07T10:10:42;36.43;;;14.20;;
9898;SDS011;4988;49.238;6.698;2022-12-07T10:13:08;40.33;;;15.67;;
9898;SDS011;4988;49.238;6.698;2022-12-07T10:15:51;38.77;;;15.43;;
9898;SDS011;4988;49.238;6.698;2022-12-07T10:18:27;38.17;;;15.93;;
9898;SDS011;4988;49.238;6.698;2022-12-07T10:26:37;39.80;;;16.60;;
9898;SDS011;4988;49.238;6.698;2022-12-07T10:31:39;39.77;;;15.80;;
9898;SDS011;4988;49.238;6.698;2022-12-07T10:34:08;38.90;;;15.30;;
9898;SDS011;4988;49.238;6.698;2022-12-07T10:42:19;38.83;;;14.30;;
9898;SDS011;4988;49.238;6.698;2022-12-07T10:44:46;34.43;;;14.73;;
9898;SDS011;4988;49.238;6.698;2022-12-07T10:55:26;37.37;;;15.03;;
9898;SDS011;4988;49.238;6.698;2022-12-07T10:58:05;37.30;;;14.50;;
9898;SDS011;4988;49.238;6.698;2022-12-07T11:13:56;21.37;;;9.63;;
9898;SDS011;4988;49.238;6.698;2022-12-07T11:21:57;30.83;;;12.80;;
9898;SDS011;4988;49.238;6.698;2022-12-07T11:24:28;26.17;;;11.60;;
9898;SDS011;4988;49.238;6.698;2022-12-07T11:30:03;20.47;;;8.83;;
9898;SDS011;4988;49.238;6.698;2022-12-07T11:32:40;18.67;;;8.87;;
9898;SDS011;4988;49.238;6.698;2022-12-07T11:35:30;17.23;;;8.33;;
9898;SDS011;4988;49.238;6.698;2022-12-07T11:38:01;13.13;;;6.83;;
9898;SDS011;4988;49.238;6.698;2022-12-07T11:40:35;16.13;;;7.23;;
9898;SDS011;4988;49.238;6.698;2022-12-07T11:45:47;12.07;;;6.53;;
9898;SDS011;4988;49.238;6.698;2022-12-07T11:51:09;12.93;;;6.77;;
9898;SDS011;4988;49.238;6.698;2022-12-07T11:53:46;14.87;;;7.03;;
9898;SDS011;4988;49.238;6.698;2022-12-07T11:56:19;13.90;;;7.40;;
9898;SDS011;4988;49.238;6.698;2022-12-07T12:06:39;19.30;;;8.63;;
9898;SDS011;4988;49.238;6.698;2022-12-07T12:09:10;14.77;;;7.40;;
9898;SDS011;4988;49.238;6.698;2022-12-07T12:11:43;19.03;;;7.90;;
9898;SDS011;4988;49.238;6.698;2022-12-07T12:22:33;14.90;;;7.40;;
9898;SDS011;4988;49.238;6.698;2022-12-07T12:25:03;18.87;;;8.47;;
9898;SDS011;4988;49.238;6.698;2022-12-07T12:27:35;16.70;;;6.73;;
9898;SDS011;4988;49.238;6.698;2022-12-07T12:30:05;12.80;;;6.93;;
9898;SDS011;4988;49.238;6.698;2022-12-07T12:32:38;18.20;;;8.23;;
9898;SDS011;4988;49.238;6.698;2022-12-07T12:37:55;17.90;;;8.47;;
9898;SDS011;4988;49.238;6.698;2022-12-07T12:40:40;26.00;;;11.60;;
9898;SDS011;4988;49.238;6.698;2022-12-07T12:43:39;29.87;;;12.43;;
9898;SDS011;4988;49.238;6.698;2022-12-07T12:51:41;23.27;;;9.77;;
9898;SDS011;4988;49.238;6.698;2022-12-07T12:54:13;22.60;;;10.20;;
9898;SDS011;4988;49.238;6.698;2022-12-07T12:57:07;20.50;;;9.27;;
9898;SDS011;4988;49.238;6.698;2022-12-07T13:05:02;17.67;;;8.00;;
9898;SDS011;4988;49.238;6.698;2022-12-07T13:17:59;24.83;;;10.50;;
9898;SDS011;4988;49.238;6.698;2022-12-07T13:20:46;15.33;;;8.03;;
9898;SDS011;4988;49.238;6.698;2022-12-07T13:23:17;20.03;;;8.00;;
9898;SDS011;4988;49.238;6.698;2022-12-07T13:28:35;19.63;;;7.67;;
9898;SDS011;4988;49.238;6.698;2022-12-07T13:33:38;16.23;;;7.50;;
9898;SDS011;4988;49.238;6.698;2022-12-07T13:36:04;15.47;;;7.10;;
9898;SDS011;4988;49.238;6.698;2022-12-07T13:38:37;14.97;;;6.93;;
9898;SDS011;4988;49.238;6.698;2022-12-07T13:43:49;17.50;;;7.97;;
9898;SDS011;4988;49.238;6.698;2022-12-07T13:46:30;15.63;;;6.90;;
9898;SDS011;4988;49.238;6.698;2022-12-07T13:49:20;14.63;;;7.73;;
9898;SDS011;4988;49.238;6.698;2022-12-07T13:51:51;21.97;;;8.83;;
9898;SDS011;4988;49.238;6.698;2022-12-07T13:54:17;20.07;;;9.23;;
9898;SDS011;4988;49.238;6.698;2022-12-07T13:56:47;16.90;;;7.57;;
9898;SDS011;4988;49.238;6.698;2022-12-07T13:59:24;13.70;;;6.43;;
9898;SDS011;4988;49.238;6.698;2022-12-07T14:01:52;12.53;;;6.40;;
9898;SDS011;4988;49.238;6.698;2022-12-07T14:04:19;13.33;;;6.80;;
9898;SDS011;4988;49.238;6.698;2022-12-07T14:06:51;14.13;;;6.37;;
9898;SDS011;4988;49.238;6.698;2022-12-07T14:09:18;12.07;;;6.20;;
9898;SDS011;4988;49.238;6.698;2022-12-07T14:11:48;11.80;;;6.27;;
9898;SDS011;4988;49.238;6.698;2022-12-07T14:14:19;13.60;;;7.20;;
9898;SDS011;4988;49.238;6.698;2022-12-07T14:17:00;15.47;;;6.00;;
9898;SDS011;4988;49.238;6.698;2022-12-07T14:19:41;16.13;;;6.63;;
9898;SDS011;4988;49.238;6.698;2022-12-07T14:22:27;10.90;;;6.00;;
9898;SDS011;4988;49.238;6.698;2022-12-07T14:27:53;13.50;;;6.27;;
9898;SDS011;4988;49.238;6.698;2022-12-07T14:30:30;11.67;;;6.23;;
9898;SDS011;4988;49.238;6.698;2022-12-07T14:32:58;12.10;;;6.10;;
9898;SDS011;4988;49.238;6.698;2022-12-07T14:35:25;17.13;;;8.70;;
9898;SDS011;4988;49.238;6.698;2022-12-07T14:37:52;25.80;;;9.27;;
9898;SDS011;4988;49.238;6.698;2022-12-07T14:40:19;17.63;;;8.83;;
9898;SDS011;4988;49.238;6.698;2022-12-07T14:42:46;22.73;;;10.27;;
9898;SDS011;4988;49.238;6.698;2022-12-07T14:45:19;18.33;;;9.60;;
9898;SDS011;4988;49.238;6.698;2022-12-07T14:47:46;35.13;;;15.27;;
9898;SDS011;4988;49.238;6.698;2022-12-07T14:50:12;49.70;;;21.80;;
9898;SDS011;4988;49.238;6.698;2022-12-07T14:52:39;43.43;;;17.20;;
9898;SDS011;4988;49.238;6.698;2022-12-07T14:55:39;55.77;;;22.33;;
9898;SDS011;4988;49.238;6.698;2022-12-07T14:57:57;31.73;;;13.53;;
9898;SDS011;4988;49.238;6.698;2022-12-07T15:00:24;20.73;;;10.20;;
9898;SDS011;4988;49.238;6.698;2022-12-07T15:02:51;20.07;;;11.00;;
9898;SDS011;4988;49.238;6.698;2022-12-07T15:05:17;22.30;;;13.30;;
9898;SDS011;4988;49.238;6.698;2022-12-07T15:07:43;18.43;;;10.17;;
9898;SDS011;4988;49.238;6.698;2022-12-07T15:10:19;17.17;;;8.50;;
9898;SDS011;4988;49.238;6.698;2022-12-07T15:12:54;16.40;;;8.63;;
9898;SDS011;4988;49.238;6.698;2022-12-07T15:15:20;15.40;;;8.43;;
9898;SDS011;4988;49.238;6.698;2022-12-07T15:17:45;24.10;;;12.80;;
9898;SDS011;4988;49.238;6.698;2022-12-07T15:20:14;23.63;;;12.13;;
9898;SDS011;4988;49.238;6.698;2022-12-07T15:22:41;21.93;;;12.27;;
9898;SDS011;4988;49.238;6.698;2022-12-07T15:25:07;21.63;;;11.10;;
9898;SDS011;4988;49.238;6.698;2022-12-07T15:27:33;22.13;;;11.50;;
9898;SDS011;4988;49.238;6.698;2022-12-07T15:29:58;29.20;;;11.90;;
9898;SDS011;4988;49.238;6.698;2022-12-07T15:32:24;27.80;;;13.10;;
9898;SDS011;4988;49.238;6.698;2022-12-07T15:34:49;22.77;;;10.90;;
9898;SDS011;4988;49.238;6.698;2022-12-07T15:37:15;17.43;;;8.77;;
9898;SDS011;4988;49.238;6.698;2022-12-07T15:39:41;18.83;;;8.40;;
9898;SDS011;4988;49.238;6.698;2022-12-07T15:42:06;16.07;;;8.30;;
9898;SDS011;4988;49.238;6.698;2022-12-07T15:44:32;13.77;;;7.13;;
9898;SDS011;4988;49.238;6.698;2022-12-07T15:47:16;16.17;;;7.20;;
9898;SDS011;4988;49.238;6.698;2022-12-07T15:49:41;16.43;;;7.33;;
9898;SDS011;4988;49.238;6.698;2022-12-07T15:52:06;15.43;;;7.03;;
9898;SDS011;4988;49.238;6.698;2022-12-07T15:54:32;18.10;;;8.13;;
9898;SDS011;4988;49.238;6.698;2022-12-07T15:56:57;19.00;;;8.77;;
9898;SDS011;4988;49.238;6.698;2022-12-07T15:59:23;18.13;;;8.57;;
9898;SDS011;4988;49.238;6.698;2022-12-07T16:01:50;13.50;;;7.17;;
9898;SDS011;4988;49.238;6.698;2022-12-07T16:04:15;17.60;;;7.90;;
9898;SDS011;4988;49.238;6.698;2022-12-07T16:06:41;19.57;;;8.60;;
9898;SDS011;4988;49.238;6.698;2022-12-07T16:09:06;14.53;;;7.53;;
9898;SDS011;4988;49.238;6.698;2022-12-07T16:11:32;19.27;;;8.73;;
9898;SDS011;4988;49.238;6.698;2022-12-07T16:13:57;22.03;;;9.93;;
9898;SDS011;4988;49.238;6.698;2022-12-07T16:16:22;55.00;;;21.17;;
9898;SDS011;4988;49.238;6.698;2022-12-07T16:18:48;31.57;;;13.57;;
9898;SDS011;4988;49.238;6.698;2022-12-07T16:21:15;22.40;;;11.00;;
9898;SDS011;4988;49.238;6.698;2022-12-07T16:23:41;17.97;;;8.67;;
9898;SDS011;4988;49.238;6.698;2022-12-07T16:26:12;18.93;;;9.33;;
9898;SDS011;4988;49.238;6.698;2022-12-07T16:28:41;17.03;;;8.10;;
9898;SDS011;4988;49.238;6.698;2022-12-07T16:31:08;15.73;;;8.40;;
9898;SDS011;4988;49.238;6.698;2022-12-07T16:33:35;16.30;;;8.37;;
9898;SDS011;4988;49.238;6.698;2022-12-07T16:36:03;16.70;;;7.97;;
9898;SDS011;4988;49.238;6.698;2022-12-07T16:38:29;16.33;;;8.10;;
9898;SDS011;4988;49.238;6.698;2022-12-07T16:40:54;18.70;;;8.80;;
9898;SDS011;4988;49.238;6.698;2022-12-07T16:43:20;24.77;;;7.67;;
9898;SDS011;4988;49.238;6.698;2022-12-07T16:45:46;15.60;;;7.73;;
9898;SDS011;4988;49.238;6.698;2022-12-07T16:48:12;18.67;;;7.70;;
9898;SDS011;4988;49.238;6.698;2022-12-07T16:50:39;15.87;;;8.27;;
9898;SDS011;4988;49.238;6.698;2022-12-07T16:53:06;16.03;;;7.53;;
9898;SDS011;4988;49.238;6.698;2022-12-07T16:55:35;18.80;;;8.17;;
9898;SDS011;4988;49.238;6.698;2022-12-07T16:58:01;19.77;;;8.23;;
9898;SDS011;4988;49.238;6.698;2022-12-07T17:00:26;19.90;;;7.63;;
9898;SDS011;4988;49.238;6.698;2022-12-07T17:02:52;17.03;;;8.30;;
9898;SDS011;4988;49.238;6.698;2022-12-07T17:05:17;19.33;;;8.13;;
9898;SDS011;4988;49.238;6.698;2022-12-07T17:07:42;17.77;;;8.23;;
9898;SDS011;4988;49.238;6.698;2022-12-07T17:10:08;17.80;;;8.87;;
9898;SDS011;4988;49.238;6.698;2022-12-07T17:12:33;22.33;;;8.53;;